sensor_id;sensor_type;location;lat;lon;timestamp;pressure;altitude;pressure_sealevel;temperature;humidity
35489;BME280;21602;55.670;37.578;2023-04-30T00:01:49;99541.56;;;7.92;70.97
35489;BME280;21602;55.670;37.578;2023-04-30T00:04:15;99553.03;;;7.93;71.13
35489;BME280;21602;55.670;37.578;2023-04-30T00:06:41;99533.59;;;7.92;71.30
35489;BME280;21602;55.670;37.578;2023-04-30T00:09:07;99541.56;;;7.92;71.45
35489;BME280;21602;55.670;37.578;2023-04-30T00:11:33;99545.25;;;7.91;71.24
35489;BME280;21602;55.670;37.578;2023-04-30T00:13:59;99548.34;;;7.88;71.14
35489;BME280;21602;55.670;37.578;2023-04-30T00:16:25;99545.88;;;7.87;70.97
35489;BME280;21602;55.670;37.578;2023-04-30T00:18:51;99543.22;;;7.87;71.02
35489;BME280;21602;55.670;37.578;2023-04-30T00:21:17;99547.72;;;7.86;70.89
35489;BME280;21602;55.670;37.578;2023-04-30T00:23:46;99545.06;;;7.86;70.86
35489;BME280;21602;55.670;37.578;2023-04-30T00:26:12;99558.13;;;7.88;70.94
35489;BME280;21602;55.670;37.578;2023-04-30T00:28:39;99552.63;;;7.89;70.72
35489;BME280;21602;55.670;37.578;2023-04-30T00:31:05;99554.03;;;7.92;70.74
35489;BME280;21602;55.670;37.578;2023-04-30T00:33:34;99559.34;;;7.92;70.61
35489;BME280;21602;55.670;37.578;2023-04-30T00:36:00;99555.06;;;7.91;70.70
35489;BME280;21602;55.670;37.578;2023-04-30T00:38:27;99555.88;;;7.91;70.93
35489;BME280;21602;55.670;37.578;2023-04-30T00:40:52;99562.81;;;7.92;71.08
35489;BME280;21602;55.670;37.578;2023-04-30T00:43:18;99562.00;;;7.92;71.13
35489;BME280;21602;55.670;37.578;2023-04-30T00:45:44;99564.06;;;7.90;71.04
35489;BME280;21602;55.670;37.578;2023-04-30T00:48:10;99567.75;;;7.89;71.59
35489;BME280;21602;55.670;37.578;2023-04-30T00:50:37;99564.94;;;7.84;72.22
35489;BME280;21602;55.670;37.578;2023-04-30T00:53:03;99561.47;;;7.77;72.43
35489;BME280;21602;55.670;37.578;2023-04-30T00:55:30;99563.34;;;7.69;72.72
35489;BME280;21602;55.670;37.578;2023-04-30T00:57:58;99562.31;;;7.64;73.07
35489;BME280;21602;55.670;37.578;2023-04-30T01:00:35;99566.22;;;7.61;73.17
35489;BME280;21602;55.670;37.578;2023-04-30T01:03:01;99567.03;;;7.62;73.38
35489;BME280;21602;55.670;37.578;2023-04-30T01:05:27;99570.72;;;7.61;73.43
35489;BME280;21602;55.670;37.578;2023-04-30T01:07:54;99566.84;;;7.57;73.74
35489;BME280;21602;55.670;37.578;2023-04-30T01:10:24;99560.31;;;7.53;73.43
35489;BME280;21602;55.670;37.578;2023-04-30T01:13:11;99565.84;;;7.51;73.60
35489;BME280;21602;55.670;37.578;2023-04-30T01:18:23;99569.13;;;7.47;73.72
35489;BME280;21602;55.670;37.578;2023-04-30T01:20:59;99569.53;;;7.50;74.32
35489;BME280;21602;55.670;37.578;2023-04-30T01:29:27;99570.34;;;7.51;74.14
35489;BME280;21602;55.670;37.578;2023-04-30T01:31:59;99573.81;;;7.51;74.34
35489;BME280;21602;55.670;37.578;2023-04-30T01:34:27;99574.84;;;7.50;74.67
35489;BME280;21602;55.670;37.578;2023-04-30T01:42:32;99567.06;;;7.49;74.75
35489;BME280;21602;55.670;37.578;2023-04-30T01:48:01;99573.81;;;7.51;74.84
35489;BME280;21602;55.670;37.578;2023-04-30T01:50:46;99572.97;;;7.57;74.41
35489;BME280;21602;55.670;37.578;2023-04-30T01:53:17;99571.13;;;7.58;74.96
35489;BME280;21602;55.670;37.578;2023-04-30T01:55:54;99568.25;;;7.59;75.27
35489;BME280;21602;55.670;37.578;2023-04-30T01:58:23;99573.38;;;7.61;75.18
35489;BME280;21602;55.670;37.578;2023-04-30T02:00:50;99568.66;;;7.63;74.94
35489;BME280;21602;55.670;37.578;2023-04-30T02:03:16;99563.34;;;7.63;74.93
35489;BME280;21602;55.670;37.578;2023-04-30T02:05:43;99559.88;;;7.62;75.16
35489;BME280;21602;55.670;37.578;2023-04-30T02:08:09;99562.53;;;7.62;74.91
35489;BME280;21602;55.670;37.578;2023-04-30T02:10:35;99563.34;;;7.63;74.66
35489;BME280;21602;55.670;37.578;2023-04-30T02:13:02;99553.97;;;7.60;74.56
35489;BME280;21602;55.670;37.578;2023-04-30T02:15:28;99552.53;;;7.58;74.49
35489;BME280;21602;55.670;37.578;2023-04-30T02:17:55;99550.09;;;7.56;74.62
35489;BME280;21602;55.670;37.578;2023-04-30T02:20:21;99551.50;;;7.59;74.66
35489;BME280;21602;55.670;37.578;2023-04-30T02:22:47;99551.91;;;7.62;74.48
35489;BME280;21602;55.670;37.578;2023-04-30T02:25:14;99547.59;;;7.68;74.14
35489;BME280;21602;55.670;37.578;2023-04-30T02:27:40;99542.44;;;7.73;74.17
35489;BME280;21602;55.670;37.578;2023-04-30T02:30:06;99540.41;;;7.75;74.03
35489;BME280;21602;55.670;37.578;2023-04-30T02:32:32;99537.94;;;7.74;73.91
35489;BME280;21602;55.670;37.578;2023-04-30T02:34:58;99527.13;;;7.75;73.74
35489;BME280;21602;55.670;37.578;2023-04-30T02:37:25;99526.69;;;7.78;73.85
35489;BME280;21602;55.670;37.578;2023-04-30T02:39:52;99533.41;;;7.87;73.70
35489;BME280;21602;55.670;37.578;2023-04-30T02:42:18;99524.78;;;7.92;73.31
35489;BME280;21602;55.670;37.578;2023-04-30T02:44:44;99523.97;;;7.98;73.48
35489;BME280;21602;55.670;37.578;2023-04-30T02:47:10;99528.25;;;7.99;73.31
35489;BME280;21602;55.670;37.578;2023-04-30T02:49:37;99517.63;;;7.99;73.82
35489;BME280;21602;55.670;37.578;2023-04-30T02:52:04;99513.56;;;7.90;73.21
35489;BME280;21602;55.670;37.578;2023-04-30T02:54:31;99507.69;;;7.81;73.83
35489;BME280;21602;55.670;37.578;2023-04-30T02:56:57;99516.69;;;7.80;73.83
35489;BME280;21602;55.670;37.578;2023-04-30T02:59:23;99515.44;;;7.83;73.84
35489;BME280;21602;55.670;37.578;2023-04-30T03:01:49;99520.91;;;7.88;73.70
35489;BME280;21602;55.670;37.578;2023-04-30T03:04:15;99509.66;;;7.92;73.59
35489;BME280;21602;55.670;37.578;2023-04-30T03:06:41;99516.22;;;7.90;73.85
35489;BME280;21602;55.670;37.578;2023-04-30T03:09:06;99520.72;;;7.89;73.78
35489;BME280;21602;55.670;37.578;2023-04-30T03:11:32;99521.94;;;7.93;73.95
35489;BME280;21602;55.670;37.578;2023-04-30T03:14:02;99512.13;;;7.94;74.25
35489;BME280;21602;55.670;37.578;2023-04-30T03:16:29;99508.44;;;7.95;74.37
35489;BME280;21602;55.670;37.578;2023-04-30T03:18:55;99511.72;;;7.90;74.51
35489;BME280;21602;55.670;37.578;2023-04-30T03:21:21;99513.34;;;7.91;74.99
35489;BME280;21602;55.670;37.578;2023-04-30T03:23:47;99512.72;;;7.96;75.09
35489;BME280;21602;55.670;37.578;2023-04-30T03:26:13;99505.53;;;8.03;75.22
35489;BME280;21602;55.670;37.578;2023-04-30T03:28:40;99510.81;;;8.10;75.43
35489;BME280;21602;55.670;37.578;2023-04-30T03:31:06;99509.56;;;8.12;75.59
35489;BME280;21602;55.670;37.578;2023-04-30T03:33:32;99496.00;;;8.20;75.66
35489;BME280;21602;55.670;37.578;2023-04-30T03:35:58;99496.56;;;8.29;75.58
35489;BME280;21602;55.670;37.578;2023-04-30T03:38:25;99496.34;;;8.37;75.41
35489;BME280;21602;55.670;37.578;2023-04-30T03:40:51;99497.75;;;8.40;75.30
35489;BME280;21602;55.670;37.578;2023-04-30T03:43:18;99493.19;;;8.47;75.18
35489;BME280;21602;55.670;37.578;2023-04-30T03:45:44;99495.00;;;8.53;75.43
35489;BME280;21602;55.670;37.578;2023-04-30T03:48:10;99499.47;;;8.59;75.17
35489;BME280;21602;55.670;37.578;2023-04-30T03:50:36;99490.22;;;8.62;74.91
35489;BME280;21602;55.670;37.578;2023-04-30T03:53:02;99483.81;;;8.69;75.04
35489;BME280;21602;55.670;37.578;2023-04-30T03:55:29;99489.50;;;8.73;75.08
35489;BME280;21602;55.670;37.578;2023-04-30T03:57:56;99490.66;;;8.84;74.70
35489;BME280;21602;55.670;37.578;2023-04-30T04:00:22;99484.03;;;8.93;74.58
35489;BME280;21602;55.670;37.578;2023-04-30T04:02:52;99490.97;;;8.94;74.43
35489;BME280;21602;55.670;37.578;2023-04-30T04:05:18;99490.16;;;8.93;74.60
35489;BME280;21602;55.670;37.578;2023-04-30T04:07:45;99483.56;;;8.96;74.49
35489;BME280;21602;55.670;37.578;2023-04-30T04:10:12;99481.94;;;8.95;74.02
35489;BME280;21602;55.670;37.578;2023-04-30T04:12:38;99481.94;;;8.95;74.51
35489;BME280;21602;55.670;37.578;2023-04-30T04:15:04;99477.19;;;8.97;74.13
35489;BME280;21602;55.670;37.578;2023-04-30T04:17:32;99476.94;;;9.05;74.29
35489;BME280;21602;55.670;37.578;2023-04-30T04:19:59;99477.75;;;9.06;73.85
35489;BME280;21602;55.670;37.578;2023-04-30T04:22:25;99480.72;;;8.97;73.40
35489;BME280;21602;55.670;37.578;2023-04-30T04:24:51;99475.59;;;8.96;73.78
35489;BME280;21602;55.670;37.578;2023-04-30T04:27:20;99477.81;;;8.99;73.80
35489;BME280;21602;55.670;37.578;2023-04-30T04:29:46;99475.69;;;9.08;73.63
35489;BME280;21602;55.670;37.578;2023-04-30T04:32:13;99469.56;;;9.07;73.21
35489;BME280;21602;55.670;37.578;2023-04-30T04:34:41;99468.88;;;9.12;73.01
35489;BME280;21602;55.670;37.578;2023-04-30T04:37:09;99472.50;;;9.17;72.68
35489;BME280;21602;55.670;37.578;2023-04-30T04:39:35;99469.19;;;9.22;72.41
35489;BME280;21602;55.670;37.578;2023-04-30T04:42:03;99466.88;;;9.26;71.92
35489;BME280;21602;55.670;37.578;2023-04-30T04:44:30;99475.63;;;9.33;71.92
35489;BME280;21602;55.670;37.578;2023-04-30T04:46:57;99468.59;;;9.38;71.13
35489;BME280;21602;55.670;37.578;2023-04-30T04:49:23;99467.25;;;9.47;71.03
35489;BME280;21602;55.670;37.578;2023-04-30T04:51:51;99467.31;;;9.59;70.48
35489;BME280;21602;55.670;37.578;2023-04-30T04:54:17;99475.00;;;9.67;70.25
35489;BME280;21602;55.670;37.578;2023-04-30T04:56:43;99474.41;;;9.65;69.82
35489;BME280;21602;55.670;37.578;2023-04-30T04:59:10;99462.88;;;9.53;69.46
35489;BME280;21602;55.670;37.578;2023-04-30T05:01:36;99467.47;;;9.46;69.33
35489;BME280;21602;55.670;37.578;2023-04-30T05:04:02;99474.88;;;9.44;68.68
35489;BME280;21602;55.670;37.578;2023-04-30T05:06:28;99474.56;;;9.52;69.02
35489;BME280;21602;55.670;37.578;2023-04-30T05:08:54;99475.25;;;9.47;67.94
35489;BME280;21602;55.670;37.578;2023-04-30T05:11:20;99470.66;;;9.55;68.35
35489;BME280;21602;55.670;37.578;2023-04-30T05:13:47;99473.91;;;9.57;67.93
35489;BME280;21602;55.670;37.578;2023-04-30T05:16:13;99466.50;;;9.59;68.04
35489;BME280;21602;55.670;37.578;2023-04-30T05:18:39;99463.16;;;9.63;67.49
35489;BME280;21602;55.670;37.578;2023-04-30T05:21:05;99463.91;;;9.52;67.22
35489;BME280;21602;55.670;37.578;2023-04-30T05:23:31;99465.69;;;9.58;67.26
35489;BME280;21602;55.670;37.578;2023-04-30T05:25:59;99457.16;;;9.68;66.90
35489;BME280;21602;55.670;37.578;2023-04-30T05:28:25;99457.28;;;9.73;67.03
35489;BME280;21602;55.670;37.578;2023-04-30T05:30:51;99462.09;;;9.83;66.56
35489;BME280;21602;55.670;37.578;2023-04-30T05:33:17;99458.41;;;9.95;66.91
35489;BME280;21602;55.670;37.578;2023-04-30T05:35:43;99464.13;;;9.99;66.08
35489;BME280;21602;55.670;37.578;2023-04-30T05:38:09;99460.38;;;9.88;65.73
35489;BME280;21602;55.670;37.578;2023-04-30T05:40:35;99461.19;;;9.89;66.04
35489;BME280;21602;55.670;37.578;2023-04-30T05:43:01;99459.44;;;9.83;65.98
35489;BME280;21602;55.670;37.578;2023-04-30T05:45:27;99456.03;;;9.75;65.86
35489;BME280;21602;55.670;37.578;2023-04-30T05:47:53;99451.44;;;9.83;65.09
35489;BME280;21602;55.670;37.578;2023-04-30T05:50:19;99452.59;;;9.87;65.44
35489;BME280;21602;55.670;37.578;2023-04-30T05:52:45;99451.22;;;9.96;64.90
35489;BME280;21602;55.670;37.578;2023-04-30T05:55:11;99452.66;;;10.10;65.25
35489;BME280;21602;55.670;37.578;2023-04-30T05:57:37;99455.84;;;10.19;64.98
35489;BME280;21602;55.670;37.578;2023-04-30T06:00:03;99462.63;;;10.33;64.54
35489;BME280;21602;55.670;37.578;2023-04-30T06:02:39;99466.59;;;10.42;64.09
35489;BME280;21602;55.670;37.578;2023-04-30T06:05:09;99469.84;;;10.44;63.72
35489;BME280;21602;55.670;37.578;2023-04-30T06:07:36;99470.66;;;10.45;63.93
35489;BME280;21602;55.670;37.578;2023-04-30T06:10:02;99471.59;;;10.50;63.64
35489;BME280;21602;55.670;37.578;2023-04-30T06:12:30;99465.09;;;10.58;63.43
35489;BME280;21602;55.670;37.578;2023-04-30T06:14:56;99471.13;;;10.42;62.87
35489;BME280;21602;55.670;37.578;2023-04-30T06:17:22;99478.00;;;10.49;63.14
35489;BME280;21602;55.670;37.578;2023-04-30T06:19:48;99478.31;;;10.53;62.00
35489;BME280;21602;55.670;37.578;2023-04-30T06:22:14;99469.63;;;10.58;62.11
35489;BME280;21602;55.670;37.578;2023-04-30T06:24:40;99476.56;;;10.47;61.15
35489;BME280;21602;55.670;37.578;2023-04-30T06:27:06;99470.44;;;10.58;61.54
35489;BME280;21602;55.670;37.578;2023-04-30T06:29:31;99470.66;;;10.57;60.22
35489;BME280;21602;55.670;37.578;2023-04-30T06:31:57;99470.91;;;10.55;60.16
35489;BME280;21602;55.670;37.578;2023-04-30T06:34:23;99472.66;;;10.61;60.09
35489;BME280;21602;55.670;37.578;2023-04-30T06:36:49;99469.53;;;10.64;60.18
35489;BME280;21602;55.670;37.578;2023-04-30T06:39:15;99459.19;;;10.68;59.70
35489;BME280;21602;55.670;37.578;2023-04-30T06:41:41;99452.47;;;10.89;59.81
35489;BME280;21602;55.670;37.578;2023-04-30T06:44:09;99460.34;;;11.07;59.88
35489;BME280;21602;55.670;37.578;2023-04-30T06:46:35;99461.03;;;11.14;58.77
35489;BME280;21602;55.670;37.578;2023-04-30T06:49:01;99448.22;;;11.28;57.49
35489;BME280;21602;55.670;37.578;2023-04-30T06:51:27;99449.75;;;11.36;56.85
35489;BME280;21602;55.670;37.578;2023-04-30T06:53:53;99451.22;;;11.43;56.71
35489;BME280;21602;55.670;37.578;2023-04-30T06:56:19;99449.34;;;11.44;55.11
35489;BME280;21602;55.670;37.578;2023-04-30T06:58:49;99440.97;;;11.52;55.60
35489;BME280;21602;55.670;37.578;2023-04-30T07:01:21;99432.13;;;11.51;54.25
35489;BME280;21602;55.670;37.578;2023-04-30T07:03:47;99424.91;;;11.64;54.80
35489;BME280;21602;55.670;37.578;2023-04-30T07:06:13;99427.19;;;11.84;54.19
35489;BME280;21602;55.670;37.578;2023-04-30T07:08:40;99418.84;;;11.97;53.50
35489;BME280;21602;55.670;37.578;2023-04-30T07:11:08;99425.25;;;11.96;52.32
35489;BME280;21602;55.670;37.578;2023-04-30T07:13:34;99419.66;;;11.97;52.50
35489;BME280;21602;55.670;37.578;2023-04-30T07:16:00;99413.69;;;12.07;52.42
35489;BME280;21602;55.670;37.578;2023-04-30T07:18:28;99409.78;;;11.98;52.11
35489;BME280;21602;55.670;37.578;2023-04-30T07:20:54;99407.34;;;11.96;51.54
35489;BME280;21602;55.670;37.578;2023-04-30T07:23:20;99401.03;;;12.02;51.71
35489;BME280;21602;55.670;37.578;2023-04-30T07:25:46;99400.53;;;12.05;51.27
35489;BME280;21602;55.670;37.578;2023-04-30T07:28:12;99396.69;;;11.85;50.24
35489;BME280;21602;55.670;37.578;2023-04-30T07:30:41;99388.66;;;11.85;50.78
35489;BME280;21602;55.670;37.578;2023-04-30T07:33:07;99395.09;;;12.00;50.69
35489;BME280;21602;55.670;37.578;2023-04-30T07:35:34;99385.69;;;12.15;50.52
35489;BME280;21602;55.670;37.578;2023-04-30T07:38:00;99381.31;;;12.42;50.23
35489;BME280;21602;55.670;37.578;2023-04-30T07:40:25;99378.00;;;12.35;48.62
35489;BME280;21602;55.670;37.578;2023-04-30T07:42:51;99373.78;;;12.39;48.91
35489;BME280;21602;55.670;37.578;2023-04-30T07:45:17;99368.81;;;12.14;48.47
35489;BME280;21602;55.670;37.578;2023-04-30T07:47:43;99361.78;;;12.08;49.02
35489;BME280;21602;55.670;37.578;2023-04-30T07:50:09;99353.03;;;12.13;48.47
35489;BME280;21602;55.670;37.578;2023-04-30T07:52:40;99340.19;;;12.15;47.79
35489;BME280;21602;55.670;37.578;2023-04-30T07:55:06;99340.22;;;12.32;48.39
35489;BME280;21602;55.670;37.578;2023-04-30T07:57:32;99331.25;;;12.43;48.54
35489;BME280;21602;55.670;37.578;2023-04-30T07:59:58;99327.34;;;12.50;48.53
35489;BME280;21602;55.670;37.578;2023-04-30T08:02:27;99331.25;;;12.60;48.31
35489;BME280;21602;55.670;37.578;2023-04-30T08:04:52;99329.72;;;12.47;48.31
35489;BME280;21602;55.670;37.578;2023-04-30T08:07:18;99313.16;;;12.50;48.85
35489;BME280;21602;55.670;37.578;2023-04-30T08:09:45;99319.66;;;12.54;48.35
35489;BME280;21602;55.670;37.578;2023-04-30T08:12:11;99306.25;;;12.54;48.77
35489;BME280;21602;55.670;37.578;2023-04-30T08:14:37;99297.84;;;12.45;48.72
35489;BME280;21602;55.670;37.578;2023-04-30T08:17:03;99289.41;;;12.37;49.09
35489;BME280;21602;55.670;37.578;2023-04-30T08:19:29;99286.63;;;12.48;48.99
35489;BME280;21602;55.670;37.578;2023-04-30T08:21:55;99278.03;;;12.46;49.42
35489;BME280;21602;55.670;37.578;2023-04-30T08:24:21;99278.34;;;12.50;49.58
35489;BME280;21602;55.670;37.578;2023-04-30T08:26:47;99286.94;;;12.52;49.68
35489;BME280;21602;55.670;37.578;2023-04-30T08:29:13;99274.88;;;12.49;49.06
35489;BME280;21602;55.670;37.578;2023-04-30T08:31:39;99276.22;;;12.52;49.15
35489;BME280;21602;55.670;37.578;2023-04-30T08:34:06;99259.84;;;12.48;49.10
35489;BME280;21602;55.670;37.578;2023-04-30T08:36:32;99255.06;;;12.50;49.05
35489;BME280;21602;55.670;37.578;2023-04-30T08:38:57;99261.69;;;12.65;49.11
35489;BME280;21602;55.670;37.578;2023-04-30T08:41:31;99259.97;;;12.80;48.99
35489;BME280;21602;55.670;37.578;2023-04-30T08:44:00;99261.09;;;12.85;48.64
35489;BME280;21602;55.670;37.578;2023-04-30T08:46:27;99248.66;;;12.73;48.56
35489;BME280;21602;55.670;37.578;2023-04-30T08:48:55;99244.81;;;12.64;48.68
35489;BME280;21602;55.670;37.578;2023-04-30T08:51:21;99240.34;;;12.53;48.25
35489;BME280;21602;55.670;37.578;2023-04-30T08:53:49;99246.38;;;12.43;48.06
35489;BME280;21602;55.670;37.578;2023-04-30T08:56:15;99243.84;;;12.32;47.97
35489;BME280;21602;55.670;37.578;2023-04-30T08:58:42;99227.13;;;12.24;47.78
35489;BME280;21602;55.670;37.578;2023-04-30T09:01:09;99229.75;;;12.19;47.36
35489;BME280;21602;55.670;37.578;2023-04-30T09:03:35;99226.06;;;12.03;47.22
35489;BME280;21602;55.670;37.578;2023-04-30T09:06:01;99220.78;;;12.09;47.28
35489;BME280;21602;55.670;37.578;2023-04-30T09:08:44;99213.06;;;12.12;46.91
35489;BME280;21602;55.670;37.578;2023-04-30T09:11:24;99205.59;;;12.14;47.33
35489;BME280;21602;55.670;37.578;2023-04-30T09:13:56;99209.19;;;12.03;47.14
35489;BME280;21602;55.670;37.578;2023-04-30T09:16:24;99202.66;;;11.94;47.18
35489;BME280;21602;55.670;37.578;2023-04-30T09:18:52;99193.63;;;12.00;47.38
35489;BME280;21602;55.670;37.578;2023-04-30T09:21:32;99187.31;;;12.06;47.70
35489;BME280;21602;55.670;37.578;2023-04-30T09:24:00;99185.66;;;12.05;47.72
35489;BME280;21602;55.670;37.578;2023-04-30T09:26:33;99190.66;;;12.18;48.00
35489;BME280;21602;55.670;37.578;2023-04-30T09:29:00;99183.75;;;12.22;47.82
35489;BME280;21602;55.670;37.578;2023-04-30T09:31:35;99173.47;;;12.14;48.03
35489;BME280;21602;55.670;37.578;2023-04-30T09:34:02;99180.44;;;12.15;48.20
35489;BME280;21602;55.670;37.578;2023-04-30T09:36:28;99160.81;;;12.26;48.82
35489;BME280;21602;55.670;37.578;2023-04-30T09:38:54;99160.97;;;12.42;48.21
35489;BME280;21602;55.670;37.578;2023-04-30T09:43:46;99143.13;;;12.25;48.01
35489;BME280;21602;55.670;37.578;2023-04-30T09:46:12;99158.31;;;12.42;48.26
35489;BME280;21602;55.670;37.578;2023-04-30T09:48:45;99147.72;;;12.52;48.42
35489;BME280;21602;55.670;37.578;2023-04-30T09:51:12;99132.16;;;12.49;47.44
35489;BME280;21602;55.670;37.578;2023-04-30T09:53:41;99130.94;;;12.35;47.63
35489;BME280;21602;55.670;37.578;2023-04-30T09:56:08;99140.16;;;12.44;47.75
35489;BME280;21602;55.670;37.578;2023-04-30T09:58:37;99134.09;;;12.32;47.40
35489;BME280;21602;55.670;37.578;2023-04-30T10:01:07;99122.97;;;12.40;47.94
35489;BME280;21602;55.670;37.578;2023-04-30T10:03:38;99150.22;;;12.37;47.51
35489;BME280;21602;55.670;37.578;2023-04-30T10:06:14;99135.84;;;12.21;47.21
35489;BME280;21602;55.670;37.578;2023-04-30T10:08:46;99149.53;;;12.24;47.58
35489;BME280;21602;55.670;37.578;2023-04-30T10:11:17;99144.31;;;12.35;47.41
35489;BME280;21602;55.670;37.578;2023-04-30T10:14:03;99137.19;;;12.45;47.24
35489;BME280;21602;55.670;37.578;2023-04-30T10:17:02;99137.00;;;12.52;46.92
35489;BME280;21602;55.670;37.578;2023-04-30T10:19:33;99145.28;;;12.50;47.02
35489;BME280;21602;55.670;37.578;2023-04-30T10:22:01;99140.94;;;12.44;46.82
35489;BME280;21602;55.670;37.578;2023-04-30T10:24:27;99145.34;;;12.34;46.93
35489;BME280;21602;55.670;37.578;2023-04-30T10:26:54;99150.47;;;12.35;46.75
35489;BME280;21602;55.670;37.578;2023-04-30T10:29:22;99155.09;;;12.40;47.14
35489;BME280;21602;55.670;37.578;2023-04-30T10:31:48;99151.34;;;12.41;47.13
35489;BME280;21602;55.670;37.578;2023-04-30T10:34:25;99141.75;;;12.45;47.37
35489;BME280;21602;55.670;37.578;2023-04-30T10:37:04;99134.78;;;12.44;46.69
35489;BME280;21602;55.670;37.578;2023-04-30T10:39:33;99148.34;;;12.37;47.18
35489;BME280;21602;55.670;37.578;2023-04-30T10:42:04;99141.06;;;12.33;46.97
35489;BME280;21602;55.670;37.578;2023-04-30T10:44:35;99143.16;;;12.52;46.57
35489;BME280;21602;55.670;37.578;2023-04-30T10:47:02;99125.69;;;12.72;46.22
35489;BME280;21602;55.670;37.578;2023-04-30T10:49:29;99137.88;;;12.85;45.97
35489;BME280;21602;55.670;37.578;2023-04-30T10:51:58;99133.28;;;12.80;45.82
35489;BME280;21602;55.670;37.578;2023-04-30T10:54:27;99141.47;;;12.68;45.91
35489;BME280;21602;55.670;37.578;2023-04-30T10:56:58;99135.06;;;12.47;46.11
35489;BME280;21602;55.670;37.578;2023-04-30T10:59:34;99142.88;;;12.49;46.24
35489;BME280;21602;55.670;37.578;2023-04-30T11:02:01;99140.25;;;12.54;46.08
35489;BME280;21602;55.670;37.578;2023-04-30T11:04:28;99151.06;;;12.64;46.24
35489;BME280;21602;55.670;37.578;2023-04-30T11:06:55;99146.56;;;12.70;45.77
35489;BME280;21602;55.670;37.578;2023-04-30T11:09:41;99147.56;;;12.91;45.49
35489;BME280;21602;55.670;37.578;2023-04-30T11:12:13;99137.13;;;12.89;45.40
35489;BME280;21602;55.670;37.578;2023-04-30T11:14:42;99134.75;;;12.93;45.27
35489;BME280;21602;55.670;37.578;2023-04-30T11:17:20;99123.47;;;12.91;45.29
35489;BME280;21602;55.670;37.578;2023-04-30T11:19:51;99107.59;;;12.84;45.48
35489;BME280;21602;55.670;37.578;2023-04-30T11:22:21;99092.19;;;12.96;45.91
35489;BME280;21602;55.670;37.578;2023-04-30T11:25:12;99101.97;;;12.86;45.38
35489;BME280;21602;55.670;37.578;2023-04-30T11:27:43;99082.81;;;12.99;45.37
35489;BME280;21602;55.670;37.578;2023-04-30T11:30:14;99073.38;;;13.23;45.39
35489;BME280;21602;55.670;37.578;2023-04-30T11:32:43;99070.59;;;13.45;44.98
35489;BME280;21602;55.670;37.578;2023-04-30T11:35:10;99068.50;;;13.57;45.17
35489;BME280;21602;55.670;37.578;2023-04-30T11:37:41;99065.59;;;13.64;44.73
35489;BME280;21602;55.670;37.578;2023-04-30T11:40:13;99056.69;;;13.53;44.66
35489;BME280;21602;55.670;37.578;2023-04-30T11:42:42;99062.44;;;13.72;44.82
35489;BME280;21602;55.670;37.578;2023-04-30T11:45:14;99067.22;;;13.70;44.20
35489;BME280;21602;55.670;37.578;2023-04-30T11:50:12;99046.88;;;13.74;44.54
35489;BME280;21602;55.670;37.578;2023-04-30T11:52:39;99045.88;;;13.43;44.55
35489;BME280;21602;55.670;37.578;2023-04-30T11:55:15;99055.19;;;13.25;45.14
35489;BME280;21602;55.670;37.578;2023-04-30T11:57:42;99049.84;;;13.30;45.39
35489;BME280;21602;55.670;37.578;2023-04-30T12:00:11;99049.94;;;13.46;45.29
35489;BME280;21602;55.670;37.578;2023-04-30T12:02:38;99044.56;;;13.46;45.23
35489;BME280;21602;55.670;37.578;2023-04-30T12:05:11;99037.03;;;13.43;45.50
35489;BME280;21602;55.670;37.578;2023-04-30T12:07:38;99028.19;;;13.42;45.09
35489;BME280;21602;55.670;37.578;2023-04-30T12:10:05;99025.97;;;13.29;45.67
35489;BME280;21602;55.670;37.578;2023-04-30T12:12:32;99030.84;;;13.37;45.14
35489;BME280;21602;55.670;37.578;2023-04-30T12:15:15;99019.31;;;13.37;45.03
35489;BME280;21602;55.670;37.578;2023-04-30T12:17:41;99036.78;;;13.44;44.86
35489;BME280;21602;55.670;37.578;2023-04-30T12:20:08;99028.19;;;13.42;45.02
35489;BME280;21602;55.670;37.578;2023-04-30T12:22:35;99027.41;;;13.47;45.06
35489;BME280;21602;55.670;37.578;2023-04-30T12:25:10;99031.59;;;13.27;45.05
35489;BME280;21602;55.670;37.578;2023-04-30T12:27:41;99035.25;;;13.16;44.75
35489;BME280;21602;55.670;37.578;2023-04-30T12:30:10;99032.50;;;13.06;45.15
35489;BME280;21602;55.670;37.578;2023-04-30T12:32:43;99034.84;;;12.97;45.11
35489;BME280;21602;55.670;37.578;2023-04-30T12:35:14;99038.03;;;12.94;45.44
35489;BME280;21602;55.670;37.578;2023-04-30T12:37:42;99044.13;;;12.85;45.62
35489;BME280;21602;55.670;37.578;2023-04-30T12:40:09;99038.72;;;12.79;45.67
35489;BME280;21602;55.670;37.578;2023-04-30T12:42:35;99047.78;;;12.73;45.84
35489;BME280;21602;55.670;37.578;2023-04-30T12:45:01;99042.38;;;12.68;45.99
35489;BME280;21602;55.670;37.578;2023-04-30T12:47:30;99047.22;;;12.71;46.30
35489;BME280;21602;55.670;37.578;2023-04-30T12:49:55;99042.19;;;12.80;46.57
35489;BME280;21602;55.670;37.578;2023-04-30T12:52:25;99045.69;;;12.80;46.88
35489;BME280;21602;55.670;37.578;2023-04-30T12:54:51;99048.06;;;12.77;47.07
35489;BME280;21602;55.670;37.578;2023-04-30T12:57:18;99048.88;;;12.77;46.91
35489;BME280;21602;55.670;37.578;2023-04-30T13:02:16;99033.13;;;12.86;47.18
35489;BME280;21602;55.670;37.578;2023-04-30T13:04:42;99027.78;;;12.86;47.07
35489;BME280;21602;55.670;37.578;2023-04-30T13:07:11;99029.88;;;12.79;47.11
35489;BME280;21602;55.670;37.578;2023-04-30T13:09:37;99025.78;;;12.71;47.03
35489;BME280;21602;55.670;37.578;2023-04-30T13:12:03;99014.94;;;12.56;47.41
35489;BME280;21602;55.670;37.578;2023-04-30T13:14:33;99021.47;;;12.38;47.60
35489;BME280;21602;55.670;37.578;2023-04-30T13:16:59;99013.97;;;12.35;47.77
35489;BME280;21602;55.670;37.578;2023-04-30T13:19:27;99021.09;;;12.29;48.38
35489;BME280;21602;55.670;37.578;2023-04-30T13:21:55;99018.66;;;12.23;48.22
35489;BME280;21602;55.670;37.578;2023-04-30T13:24:22;99013.03;;;12.24;48.63